sensor_id;sensor_type;location;lat;lon;timestamp;P1;durP1;ratioP1;P2;durP2;ratioP2
66384;SDS011;53426;55.872;37.462;2023-01-19T00:01:26;25.85;;;13.88;;
66384;SDS011;53426;55.872;37.462;2023-01-19T00:03:52;33.15;;;15.18;;
66384;SDS011;53426;55.872;37.462;2023-01-19T00:06:18;28.45;;;15.30;;
66384;SDS011;53426;55.872;37.462;2023-01-19T00:08:44;33.20;;;15.65;;
66384;SDS011;53426;55.872;37.462;2023-01-19T00:11:10;33.63;;;16.10;;
66384;SDS011;53426;55.872;37.462;2023-01-19T00:13:37;15.98;;;9.70;;
66384;SDS011;53426;55.872;37.462;2023-01-19T00:16:04;25.45;;;15.23;;
66384;SDS011;53426;55.872;37.462;2023-01-19T00:18:31;35.22;;;17.30;;
66384;SDS011;53426;55.872;37.462;2023-01-19T00:20:58;24.67;;;14.23;;
66384;SDS011;53426;55.872;37.462;2023-01-19T00:23:23;27.88;;;15.02;;
66384;SDS011;53426;55.872;37.462;2023-01-19T00:25:49;26.00;;;12.43;;
66384;SDS011;53426;55.872;37.462;2023-01-19T00:28:17;22.92;;;11.80;;
66384;SDS011;53426;55.872;37.462;2023-01-19T00:30:43;30.02;;;16.75;;
66384;SDS011;53426;55.872;37.462;2023-01-19T00:33:10;20.88;;;12.77;;
66384;SDS011;53426;55.872;37.462;2023-01-19T00:35:39;28.85;;;14.23;;
66384;SDS011;53426;55.872;37.462;2023-01-19T00:38:07;27.45;;;16.50;;
66384;SDS011;53426;55.872;37.462;2023-01-19T00:40:33;26.63;;;15.43;;
66384;SDS011;53426;55.872;37.462;2023-01-19T00:43:00;21.17;;;13.75;;
66384;SDS011;53426;55.872;37.462;2023-01-19T00:45:27;27.98;;;14.70;;
66384;SDS011;53426;55.872;37.462;2023-01-19T00:47:53;17.05;;;10.90;;
66384;SDS011;53426;55.872;37.462;2023-01-19T00:50:21;24.08;;;13.40;;
66384;SDS011;53426;55.872;37.462;2023-01-19T00:52:48;30.42;;;16.45;;
66384;SDS011;53426;55.872;37.462;2023-01-19T00:55:16;22.63;;;14.10;;
66384;SDS011;53426;55.872;37.462;2023-01-19T00:57:42;24.67;;;14.13;;
66384;SDS011;53426;55.872;37.462;2023-01-19T01:00:10;25.15;;;13.70;;
66384;SDS011;53426;55.872;37.462;2023-01-19T01:02:39;19.77;;;11.60;;
66384;SDS011;53426;55.872;37.462;2023-01-19T01:05:06;26.55;;;16.05;;
66384;SDS011;53426;55.872;37.462;2023-01-19T01:07:33;20.20;;;11.38;;
66384;SDS011;53426;55.872;37.462;2023-01-19T01:10:06;24.20;;;13.82;;
66384;SDS011;53426;55.872;37.462;2023-01-19T01:12:33;18.00;;;11.73;;
66384;SDS011;53426;55.872;37.462;2023-01-19T01:14:59;15.70;;;9.57;;
66384;SDS011;53426;55.872;37.462;2023-01-19T01:17:25;17.38;;;10.55;;
66384;SDS011;53426;55.872;37.462;2023-01-19T01:19:51;26.20;;;13.55;;
66384;SDS011;53426;55.872;37.462;2023-01-19T01:22:17;24.80;;;15.05;;
66384;SDS011;53426;55.872;37.462;2023-01-19T01:24:43;22.08;;;11.48;;
66384;SDS011;53426;55.872;37.462;2023-01-19T01:27:09;25.70;;;14.95;;
66384;SDS011;53426;55.872;37.462;2023-01-19T01:29:36;18.83;;;12.40;;
66384;SDS011;53426;55.872;37.462;2023-01-19T01:32:02;22.98;;;11.73;;
66384;SDS011;53426;55.872;37.462;2023-01-19T01:34:28;30.02;;;16.13;;
66384;SDS011;53426;55.872;37.462;2023-01-19T01:36:54;20.13;;;10.13;;
66384;SDS011;53426;55.872;37.462;2023-01-19T01:39:20;17.90;;;10.07;;
66384;SDS011;53426;55.872;37.462;2023-01-19T01:41:46;28.13;;;14.45;;
66384;SDS011;53426;55.872;37.462;2023-01-19T01:47:38;23.65;;;12.88;;
66384;SDS011;53426;55.872;37.462;2023-01-19T01:52:43;19.13;;;10.57;;
66384;SDS011;53426;55.872;37.462;2023-01-19T01:55:13;29.83;;;14.48;;
66384;SDS011;53426;55.872;37.462;2023-01-19T01:57:42;30.40;;;15.75;;
66384;SDS011;53426;55.872;37.462;2023-01-19T02:00:10;21.60;;;11.18;;
66384;SDS011;53426;55.872;37.462;2023-01-19T02:02:37;26.73;;;15.10;;
66384;SDS011;53426;55.872;37.462;2023-01-19T02:05:23;26.23;;;14.38;;
66384;SDS011;53426;55.872;37.462;2023-01-19T02:07:54;23.20;;;13.20;;
66384;SDS011;53426;55.872;37.462;2023-01-19T02:11:05;19.23;;;11.77;;
66384;SDS011;53426;55.872;37.462;2023-01-19T02:13:49;21.33;;;12.48;;
66384;SDS011;53426;55.872;37.462;2023-01-19T02:16:16;22.10;;;13.20;;
66384;SDS011;53426;55.872;37.462;2023-01-19T02:18:42;37.50;;;16.00;;
66384;SDS011;53426;55.872;37.462;2023-01-19T02:21:22;26.25;;;14.43;;
66384;SDS011;53426;55.872;37.462;2023-01-19T02:23:58;26.98;;;15.07;;
66384;SDS011;53426;55.872;37.462;2023-01-19T02:26:28;29.02;;;15.35;;
66384;SDS011;53426;55.872;37.462;2023-01-19T02:28:59;30.05;;;16.05;;
66384;SDS011;53426;55.872;37.462;2023-01-19T02:31:28;37.22;;;15.90;;
66384;SDS011;53426;55.872;37.462;2023-01-19T02:33:55;22.88;;;12.60;;
66384;SDS011;53426;55.872;37.462;2023-01-19T02:36:27;27.50;;;13.90;;
66384;SDS011;53426;55.872;37.462;2023-01-19T02:39:14;22.42;;;11.10;;
66384;SDS011;53426;55.872;37.462;2023-01-19T02:41:45;20.45;;;11.38;;
66384;SDS011;53426;55.872;37.462;2023-01-19T02:44:15;19.88;;;10.75;;
66384;SDS011;53426;55.872;37.462;2023-01-19T02:46:42;26.98;;;15.88;;
66384;SDS011;53426;55.872;37.462;2023-01-19T02:49:08;30.58;;;15.90;;
66384;SDS011;53426;55.872;37.462;2023-01-19T02:51:34;25.63;;;14.70;;
66384;SDS011;53426;55.872;37.462;2023-01-19T02:54:08;29.77;;;14.77;;
66384;SDS011;53426;55.872;37.462;2023-01-19T03:10:39;25.45;;;14.55;;
66384;SDS011;53426;55.872;37.462;2023-01-19T03:16:18;24.25;;;14.27;;
66384;SDS011;53426;55.872;37.462;2023-01-19T03:18:48;24.10;;;14.85;;
66384;SDS011;53426;55.872;37.462;2023-01-19T03:21:20;28.92;;;15.27;;
66384;SDS011;53426;55.872;37.462;2023-01-19T03:23:50;24.92;;;14.00;;
66384;SDS011;53426;55.872;37.462;2023-01-19T03:26:21;28.50;;;16.50;;
66384;SDS011;53426;55.872;37.462;2023-01-19T03:28:54;21.02;;;13.30;;
66384;SDS011;53426;55.872;37.462;2023-01-19T03:31:23;32.42;;;17.27;;
66384;SDS011;53426;55.872;37.462;2023-01-19T03:33:53;31.33;;;16.00;;
66384;SDS011;53426;55.872;37.462;2023-01-19T03:36:24;25.45;;;14.23;;
66384;SDS011;53426;55.872;37.462;2023-01-19T03:38:55;23.88;;;12.00;;
66384;SDS011;53426;55.872;37.462;2023-01-19T03:41:22;25.83;;;14.77;;
66384;SDS011;53426;55.872;37.462;2023-01-19T03:43:50;26.52;;;13.88;;
66384;SDS011;53426;55.872;37.462;2023-01-19T03:46:18;14.45;;;7.50;;
66384;SDS011;53426;55.872;37.462;2023-01-19T03:48:46;24.92;;;14.23;;
66384;SDS011;53426;55.872;37.462;2023-01-19T03:51:12;25.98;;;13.68;;
66384;SDS011;53426;55.872;37.462;2023-01-19T03:53:39;23.02;;;12.43;;
66384;SDS011;53426;55.872;37.462;2023-01-19T03:56:06;39.10;;;15.60;;
66384;SDS011;53426;55.872;37.462;2023-01-19T03:58:46;21.10;;;12.88;;
66384;SDS011;53426;55.872;37.462;2023-01-19T04:01:12;21.38;;;11.15;;
66384;SDS011;53426;55.872;37.462;2023-01-19T04:03:39;27.27;;;14.20;;
66384;SDS011;53426;55.872;37.462;2023-01-19T04:06:06;23.80;;;12.35;;
66384;SDS011;53426;55.872;37.462;2023-01-19T04:08:33;17.80;;;11.77;;
66384;SDS011;53426;55.872;37.462;2023-01-19T04:11:00;22.92;;;11.48;;
66384;SDS011;53426;55.872;37.462;2023-01-19T04:13:26;22.55;;;12.80;;
66384;SDS011;53426;55.872;37.462;2023-01-19T04:15:58;19.33;;;12.32;;
66384;SDS011;53426;55.872;37.462;2023-01-19T04:18:26;28.33;;;16.58;;
66384;SDS011;53426;55.872;37.462;2023-01-19T04:20:52;22.58;;;12.68;;
66384;SDS011;53426;55.872;37.462;2023-01-19T04:23:19;27.50;;;15.35;;
66384;SDS011;53426;55.872;37.462;2023-01-19T04:25:45;27.02;;;14.52;;
66384;SDS011;53426;55.872;37.462;2023-01-19T04:28:10;32.50;;;15.15;;
66384;SDS011;53426;55.872;37.462;2023-01-19T04:30:37;25.77;;;14.32;;
66384;SDS011;53426;55.872;37.462;2023-01-19T04:33:03;22.27;;;12.65;;
66384;SDS011;53426;55.872;37.462;2023-01-19T04:35:29;22.52;;;12.10;;
66384;SDS011;53426;55.872;37.462;2023-01-19T04:37:55;22.45;;;13.50;;
66384;SDS011;53426;55.872;37.462;2023-01-19T04:40:24;20.45;;;11.48;;
66384;SDS011;53426;55.872;37.462;2023-01-19T04:42:49;28.02;;;14.00;;
66384;SDS011;53426;55.872;37.462;2023-01-19T04:45:18;23.42;;;14.93;;
66384;SDS011;53426;55.872;37.462;2023-01-19T04:47:44;20.40;;;12.73;;
66384;SDS011;53426;55.872;37.462;2023-01-19T04:50:10;19.10;;;9.05;;
66384;SDS011;53426;55.872;37.462;2023-01-19T04:52:36;22.85;;;14.38;;
66384;SDS011;53426;55.872;37.462;2023-01-19T04:55:02;33.38;;;14.90;;
66384;SDS011;53426;55.872;37.462;2023-01-19T04:57:29;13.52;;;8.70;;
66384;SDS011;53426;55.872;37.462;2023-01-19T04:59:56;22.05;;;13.18;;
66384;SDS011;53426;55.872;37.462;2023-01-19T05:02:23;16.70;;;11.10;;
66384;SDS011;53426;55.872;37.462;2023-01-19T05:04:59;17.63;;;11.65;;
66384;SDS011;53426;55.872;37.462;2023-01-19T05:07:29;26.48;;;13.27;;
66384;SDS011;53426;55.872;37.462;2023-01-19T05:09:55;23.08;;;13.35;;
66384;SDS011;53426;55.872;37.462;2023-01-19T05:12:21;19.55;;;12.98;;
66384;SDS011;53426;55.872;37.462;2023-01-19T05:14:47;26.88;;;13.70;;
66384;SDS011;53426;55.872;37.462;2023-01-19T05:17:12;32.97;;;16.35;;
66384;SDS011;53426;55.872;37.462;2023-01-19T05:19:38;16.95;;;9.77;;
66384;SDS011;53426;55.872;37.462;2023-01-19T05:22:04;27.52;;;14.75;;
66384;SDS011;53426;55.872;37.462;2023-01-19T05:24:30;26.25;;;15.40;;
66384;SDS011;53426;55.872;37.462;2023-01-19T05:26:56;23.40;;;13.18;;
66384;SDS011;53426;55.872;37.462;2023-01-19T05:29:22;25.60;;;14.57;;
66384;SDS011;53426;55.872;37.462;2023-01-19T05:31:49;23.67;;;15.05;;
66384;SDS011;53426;55.872;37.462;2023-01-19T05:34:37;25.50;;;15.05;;
66384;SDS011;53426;55.872;37.462;2023-01-19T05:37:02;27.25;;;15.23;;
66384;SDS011;53426;55.872;37.462;2023-01-19T05:39:28;25.45;;;16.50;;
66384;SDS011;53426;55.872;37.462;2023-01-19T05:41:54;22.05;;;13.93;;
66384;SDS011;53426;55.872;37.462;2023-01-19T05:44:20;28.10;;;15.07;;
66384;SDS011;53426;55.872;37.462;2023-01-19T05:46:46;27.05;;;14.30;;
66384;SDS011;53426;55.872;37.462;2023-01-19T05:49:12;27.85;;;14.48;;
66384;SDS011;53426;55.872;37.462;2023-01-19T05:51:38;21.30;;;14.68;;
66384;SDS011;53426;55.872;37.462;2023-01-19T05:54:04;25.48;;;14.98;;
66384;SDS011;53426;55.872;37.462;2023-01-19T05:56:31;26.02;;;14.25;;
66384;SDS011;53426;55.872;37.462;2023-01-19T05:58:58;27.58;;;15.65;;
66384;SDS011;53426;55.872;37.462;2023-01-19T06:01:25;36.78;;;16.40;;
66384;SDS011;53426;55.872;37.462;2023-01-19T06:03:51;25.73;;;16.77;;
66384;SDS011;53426;55.872;37.462;2023-01-19T06:06:17;25.92;;;15.82;;
66384;SDS011;53426;55.872;37.462;2023-01-19T06:08:43;25.27;;;15.40;;
66384;SDS011;53426;55.872;37.462;2023-01-19T06:11:09;23.20;;;13.25;;
66384;SDS011;53426;55.872;37.462;2023-01-19T06:13:36;24.77;;;13.35;;
66384;SDS011;53426;55.872;37.462;2023-01-19T06:16:04;29.00;;;15.57;;
66384;SDS011;53426;55.872;37.462;2023-01-19T06:18:30;23.15;;;12.48;;
66384;SDS011;53426;55.872;37.462;2023-01-19T06:20:56;23.08;;;14.73;;
66384;SDS011;53426;55.872;37.462;2023-01-19T06:23:25;28.52;;;15.48;;
66384;SDS011;53426;55.872;37.462;2023-01-19T06:25:54;36.65;;;17.80;;
66384;SDS011;53426;55.872;37.462;2023-01-19T06:28:22;19.83;;;11.00;;
66384;SDS011;53426;55.872;37.462;2023-01-19T06:30:48;17.42;;;10.98;;
66384;SDS011;53426;55.872;37.462;2023-01-19T06:33:15;20.45;;;10.70;;
66384;SDS011;53426;55.872;37.462;2023-01-19T06:35:46;19.88;;;10.90;;
66384;SDS011;53426;55.872;37.462;2023-01-19T06:38:14;23.23;;;12.10;;
66384;SDS011;53426;55.872;37.462;2023-01-19T06:40:43;30.58;;;16.00;;
66384;SDS011;53426;55.872;37.462;2023-01-19T06:43:10;21.58;;;12.18;;
66384;SDS011;53426;55.872;37.462;2023-01-19T06:45:36;28.10;;;17.50;;
66384;SDS011;53426;55.872;37.462;2023-01-19T06:48:04;18.60;;;12.00;;
66384;SDS011;53426;55.872;37.462;2023-01-19T06:50:31;24.10;;;13.05;;
66384;SDS011;53426;55.872;37.462;2023-01-19T06:52:57;22.35;;;14.07;;
66384;SDS011;53426;55.872;37.462;2023-01-19T06:55:26;25.92;;;13.65;;
66384;SDS011;53426;55.872;37.462;2023-01-19T06:57:57;25.50;;;14.55;;
66384;SDS011;53426;55.872;37.462;2023-01-19T07:00:26;26.98;;;14.18;;
66384;SDS011;53426;55.872;37.462;2023-01-19T07:02:53;27.13;;;16.98;;
66384;SDS011;53426;55.872;37.462;2023-01-19T07:05:19;28.00;;;16.90;;
66384;SDS011;53426;55.872;37.462;2023-01-19T07:07:52;25.55;;;15.45;;
66384;SDS011;53426;55.872;37.462;2023-01-19T07:10:19;35.58;;;17.02;;
66384;SDS011;53426;55.872;37.462;2023-01-19T07:12:45;31.10;;;16.73;;
66384;SDS011;53426;55.872;37.462;2023-01-19T07:15:15;32.38;;;15.40;;
66384;SDS011;53426;55.872;37.462;2023-01-19T07:17:43;28.17;;;16.33;;
66384;SDS011;53426;55.872;37.462;2023-01-19T07:20:12;29.90;;;14.15;;
66384;SDS011;53426;55.872;37.462;2023-01-19T07:22:39;33.05;;;19.13;;
66384;SDS011;53426;55.872;37.462;2023-01-19T07:25:08;35.00;;;14.68;;
66384;SDS011;53426;55.872;37.462;2023-01-19T07:27:34;24.83;;;15.25;;
66384;SDS011;53426;55.872;37.462;2023-01-19T07:30:00;20.98;;;11.75;;
66384;SDS011;53426;55.872;37.462;2023-01-19T07:32:27;30.90;;;18.05;;
66384;SDS011;53426;55.872;37.462;2023-01-19T07:34:53;38.67;;;17.92;;
66384;SDS011;53426;55.872;37.462;2023-01-19T07:37:19;31.17;;;15.82;;
66384;SDS011;53426;55.872;37.462;2023-01-19T07:39:45;24.77;;;12.32;;
66384;SDS011;53426;55.872;37.462;2023-01-19T07:42:11;30.40;;;15.25;;
66384;SDS011;53426;55.872;37.462;2023-01-19T07:44:36;26.98;;;15.00;;
66384;SDS011;53426;55.872;37.462;2023-01-19T07:47:03;15.27;;;9.80;;
66384;SDS011;53426;55.872;37.462;2023-01-19T07:49:31;23.45;;;13.55;;
66384;SDS011;53426;55.872;37.462;2023-01-19T07:52:01;20.02;;;13.05;;
66384;SDS011;53426;55.872;37.462;2023-01-19T07:54:27;26.40;;;16.05;;
66384;SDS011;53426;55.872;37.462;2023-01-19T07:56:53;26.27;;;16.80;;
66384;SDS011;53426;55.872;37.462;2023-01-19T07:59:19;26.98;;;15.45;;
66384;SDS011;53426;55.872;37.462;2023-01-19T08:01:46;24.77;;;15.68;;
66384;SDS011;53426;55.872;37.462;2023-01-19T08:04:12;29.65;;;16.77;;
66384;SDS011;53426;55.872;37.462;2023-01-19T08:06:38;30.13;;;17.17;;
66384;SDS011;53426;55.872;37.462;2023-01-19T08:09:05;31.73;;;15.38;;
66384;SDS011;53426;55.872;37.462;2023-01-19T08:11:31;31.40;;;17.48;;
66384;SDS011;53426;55.872;37.462;2023-01-19T08:13:58;33.67;;;15.45;;
66384;SDS011;53426;55.872;37.462;2023-01-19T08:16:24;21.38;;;11.05;;
66384;SDS011;53426;55.872;37.462;2023-01-19T08:18:50;34.03;;;15.45;;
66384;SDS011;53426;55.872;37.462;2023-01-19T08:21:16;23.75;;;13.40;;
66384;SDS011;53426;55.872;37.462;2023-01-19T08:23:41;29.35;;;15.63;;
66384;SDS011;53426;55.872;37.462;2023-01-19T08:26:20;27.85;;;16.17;;
66384;SDS011;53426;55.872;37.462;2023-01-19T08:28:52;34.45;;;16.48;;
66384;SDS011;53426;55.872;37.462;2023-01-19T08:31:19;32.42;;;16.38;;
66384;SDS011;53426;55.872;37.462;2023-01-19T08:33:45;22.27;;;12.88;;
66384;SDS011;53426;55.872;37.462;2023-01-19T08:36:11;33.13;;;17.10;;
66384;SDS011;53426;55.872;37.462;2023-01-19T08:38:37;26.63;;;15.77;;
66384;SDS011;53426;55.872;37.462;2023-01-19T08:41:05;29.45;;;15.40;;
66384;SDS011;53426;55.872;37.462;2023-01-19T08:43:31;28.73;;;17.27;;
66384;SDS011;53426;55.872;37.462;2023-01-19T08:45:58;27.30;;;16.65;;
66384;SDS011;53426;55.872;37.462;2023-01-19T08:48:25;27.67;;;17.15;;
66384;SDS011;53426;55.872;37.462;2023-01-19T08:50:51;26.48;;;16.15;;
66384;SDS011;53426;55.872;37.462;2023-01-19T08:53:17;28.33;;;15.55;;
66384;SDS011;53426;55.872;37.462;2023-01-19T08:55:46;30.67;;;16.00;;
66384;SDS011;53426;55.872;37.462;2023-01-19T08:58:12;29.35;;;16.10;;
66384;SDS011;53426;55.872;37.462;2023-01-19T09:00:38;24.55;;;13.68;;
66384;SDS011;53426;55.872;37.462;2023-01-19T09:03:05;24.33;;;15.00;;
66384;SDS011;53426;55.872;37.462;2023-01-19T09:05:35;31.98;;;17.00;;
66384;SDS011;53426;55.872;37.462;2023-01-19T09:08:05;26.80;;;16.10;;
66384;SDS011;53426;55.872;37.462;2023-01-19T09:10:32;29.60;;;16.20;;
66384;SDS011;53426;55.872;37.462;2023-01-19T09:13:02;31.77;;;16.38;;
66384;SDS011;53426;55.872;37.462;2023-01-19T09:15:38;26.90;;;16.42;;
66384;SDS011;53426;55.872;37.462;2023-01-19T09:18:06;35.67;;;15.70;;
66384;SDS011;53426;55.872;37.462;2023-01-19T09:20:41;28.13;;;17.13;;
66384;SDS011;53426;55.872;37.462;2023-01-19T09:23:08;24.77;;;15.35;;
66384;SDS011;53426;55.872;37.462;2023-01-19T09:25:39;25.25;;;15.38;;
66384;SDS011;53426;55.872;37.462;2023-01-19T09:28:06;27.90;;;14.70;;
66384;SDS011;53426;55.872;37.462;2023-01-19T09:30:37;28.08;;;14.70;;
66384;SDS011;53426;55.872;37.462;2023-01-19T09:33:05;25.48;;;16.65;;
66384;SDS011;53426;55.872;37.462;2023-01-19T09:35:34;29.95;;;16.15;;
66384;SDS011;53426;55.872;37.462;2023-01-19T09:38:01;25.63;;;16.15;;
66384;SDS011;53426;55.872;37.462;2023-01-19T09:40:27;28.20;;;13.75;;
66384;SDS011;53426;55.872;37.462;2023-01-19T09:42:55;32.78;;;18.25;;
66384;SDS011;53426;55.872;37.462;2023-01-19T09:48:47;30.05;;;15.68;;
66384;SDS011;53426;55.872;37.462;2023-01-19T09:51:30;35.40;;;17.25;;
66384;SDS011;53426;55.872;37.462;2023-01-19T09:54:12;28.23;;;15.23;;
66384;SDS011;53426;55.872;37.462;2023-01-19T09:56:41;27.80;;;15.10;;
66384;SDS011;53426;55.872;37.462;2023-01-19T10:02:03;26.80;;;15.38;;
66384;SDS011;53426;55.872;37.462;2023-01-19T10:07:39;31.75;;;15.90;;
66384;SDS011;53426;55.872;37.462;2023-01-19T10:10:26;30.85;;;17.70;;
66384;SDS011;53426;55.872;37.462;2023-01-19T10:15:44;25.30;;;14.52;;
66384;SDS011;53426;55.872;37.462;2023-01-19T10:23:52;23.50;;;11.32;;
66384;SDS011;53426;55.872;37.462;2023-01-19T10:26:28;33.10;;;18.02;;
66384;SDS011;53426;55.872;37.462;2023-01-19T10:29:05;35.55;;;18.60;;
66384;SDS011;53426;55.872;37.462;2023-01-19T10:31:50;31.95;;;18.08;;
66384;SDS011;53426;55.872;37.462;2023-01-19T10:34:20;32.53;;;17.08;;
66384;SDS011;53426;55.872;37.462;2023-01-19T10:36:48;34.45;;;18.85;;
66384;SDS011;53426;55.872;37.462;2023-01-19T10:39:19;37.17;;;18.05;;
66384;SDS011;53426;55.872;37.462;2023-01-19T10:41:50;31.38;;;15.90;;
66384;SDS011;53426;55.872;37.462;2023-01-19T10:44:22;31.23;;;18.98;;
66384;SDS011;53426;55.872;37.462;2023-01-19T10:46:52;30.40;;;17.38;;
66384;SDS011;53426;55.872;37.462;2023-01-19T10:49:33;33.67;;;17.52;;
66384;SDS011;53426;55.872;37.462;2023-01-19T10:52:05;25.95;;;14.23;;
66384;SDS011;53426;55.872;37.462;2023-01-19T10:54:43;32.35;;;18.00;;
66384;SDS011;53426;55.872;37.462;2023-01-19T11:03:56;33.67;;;14.45;;
66384;SDS011;53426;55.872;37.462;2023-01-19T11:06:30;37.75;;;18.95;;
66384;SDS011;53426;55.872;37.462;2023-01-19T11:09:17;32.25;;;16.80;;
66384;SDS011;53426;55.872;37.462;2023-01-19T11:11:45;38.50;;;18.35;;
66384;SDS011;53426;55.872;37.462;2023-01-19T11:17:21;37.22;;;15.82;;
66384;SDS011;53426;55.872;37.462;2023-01-19T11:19:57;33.80;;;19.40;;
66384;SDS011;53426;55.872;37.462;2023-01-19T11:22:26;36.67;;;19.95;;
66384;SDS011;53426;55.872;37.462;2023-01-19T11:24:58;36.08;;;20.45;;
66384;SDS011;53426;55.872;37.462;2023-01-19T11:27:26;42.47;;;18.42;;
66384;SDS011;53426;55.872;37.462;2023-01-19T11:30:09;39.63;;;21.25;;
66384;SDS011;53426;55.872;37.462;2023-01-19T11:32:51;40.88;;;19.88;;
66384;SDS011;53426;55.872;37.462;2023-01-19T11:38:19;41.65;;;18.48;;
66384;SDS011;53426;55.872;37.462;2023-01-19T11:40:54;42.85;;;21.13;;
66384;SDS011;53426;55.872;37.462;2023-01-19T11:43:22;40.83;;;20.35;;
66384;SDS011;53426;55.872;37.462;2023-01-19T11:45:53;42.83;;;22.15;;
66384;SDS011;53426;55.872;37.462;2023-01-19T11:48:31;38.38;;;20.70;;
66384;SDS011;53426;55.872;37.462;2023-01-19T11:51:04;38.47;;;20.90;;
66384;SDS011;53426;55.872;37.462;2023-01-19T11:53:34;38.35;;;20.95;;
66384;SDS011;53426;55.872;37.462;2023-01-19T11:56:14;48.10;;;21.98;;
66384;SDS011;53426;55.872;37.462;2023-01-19T12:01:37;56.05;;;21.83;;
66384;SDS011;53426;55.872;37.462;2023-01-19T12:04:16;38.42;;;20.85;;
66384;SDS011;53426;55.872;37.462;2023-01-19T12:06:52;45.13;;;21.92;;
66384;SDS011;53426;55.872;37.462;2023-01-19T12:12:06;37.28;;;19.60;;
66384;SDS011;53426;55.872;37.462;2023-01-19T12:15:19;41.22;;;18.35;;
66384;SDS011;53426;55.872;37.462;2023-01-19T12:17:51;42.33;;;20.00;;
66384;SDS011;53426;55.872;37.462;2023-01-19T12:28:11;42.85;;;21.35;;
66384;SDS011;53426;55.872;37.462;2023-01-19T12:30:40;45.47;;;20.38;;
66384;SDS011;53426;55.872;37.462;2023-01-19T12:36:10;46.50;;;21.93;;
66384;SDS011;53426;55.872;37.462;2023-01-19T12:38:46;34.20;;;18.10;;
66384;SDS011;53426;55.872;37.462;2023-01-19T12:49:21;41.90;;;18.33;;
66384;SDS011;53426;55.872;37.462;2023-01-19T12:51:48;49.90;;;20.17;;
66384;SDS011;53426;55.872;37.462;2023-01-19T12:56:59;35.95;;;18.70;;
66384;SDS011;53426;55.872;37.462;2023-01-19T12:59:34;40.28;;;21.58;;
66384;SDS011;53426;55.872;37.462;2023-01-19T13:13:38;45.70;;;21.10;;
66384;SDS011;53426;55.872;37.462;2023-01-19T13:18:45;45.85;;;22.15;;
66384;SDS011;53426;55.872;37.462;2023-01-19T13:21:40;39.10;;;20.00;;
66384;SDS011;53426;55.872;37.462;2023-01-19T13:24:17;42.75;;;21.08;;
66384;SDS011;53426;55.872;37.462;2023-01-19T13:29:38;37.33;;;21.25;;
66384;SDS011;53426;55.872;37.462;2023-01-19T13:32:12;38.73;;;20.40;;
66384;SDS011;53426;55.872;37.462;2023-01-19T13:34:41;41.95;;;21.52;;
66384;SDS011;53426;55.872;37.462;2023-01-19T13:37:20;48.42;;;24.08;;
66384;SDS011;53426;55.872;37.462;2023-01-19T13:40:01;58.22;;;24.50;;
66384;SDS011;53426;55.872;37.462;2023-01-19T13:42:32;55.90;;;23.92;;
66384;SDS011;53426;55.872;37.462;2023-01-19T13:47:49;55.83;;;25.08;;
66384;SDS011;53426;55.872;37.462;2023-01-19T13:50:20;55.78;;;24.33;;
66384;SDS011;53426;55.872;37.462;2023-01-19T13:53:28;51.78;;;23.95;;
66384;SDS011;53426;55.872;37.462;2023-01-19T14:01:26;51.38;;;23.63;;
66384;SDS011;53426;55.872;37.462;2023-01-19T14:03:52;50.17;;;23.33;;
66384;SDS011;53426;55.872;37.462;2023-01-19T14:06:38;50.47;;;22.58;;
66384;SDS011;53426;55.872;37.462;2023-01-19T14:09:15;58.03;;;24.85;;
66384;SDS011;53426;55.872;37.462;2023-01-19T14:11:47;64.15;;;27.42;;
66384;SDS011;53426;55.872;37.462;2023-01-19T14:14:32;54.28;;;24.52;;
66384;SDS011;53426;55.872;37.462;2023-01-19T14:16:58;60.08;;;25.98;;
66384;SDS011;53426;55.872;37.462;2023-01-19T14:19:24;64.38;;;25.45;;
66384;SDS011;53426;55.872;37.462;2023-01-19T14:21:56;66.20;;;27.33;;
66384;SDS011;53426;55.872;37.462;2023-01-19T14:24:24;40.90;;;18.13;;
66384;SDS011;53426;55.872;37.462;2023-01-19T14:29:43;53.47;;;22.77;;
66384;SDS011;53426;55.872;37.462;2023-01-19T14:32:13;57.08;;;25.23;;
66384;SDS011;53426;55.872;37.462;2023-01-19T14:40:15;53.25;;;24.92;;
66384;SDS011;53426;55.872;37.462;2023-01-19T14:42:44;50.38;;;23.80;;
66384;SDS011;53426;55.872;37.462;2023-01-19T14:47:44;65.47;;;23.10;;
66384;SDS011;53426;55.872;37.462;2023-01-19T14:50:37;57.30;;;26.30;;
66384;SDS011;53426;55.872;37.462;2023-01-19T14:53:11;48.25;;;24.33;;
66384;SDS011;53426;55.872;37.462;2023-01-19T14:55:45;54.90;;;25.05;;
66384;SDS011;53426;55.872;37.462;2023-01-19T14:58:14;35.33;;;17.58;;
66384;SDS011;53426;55.872;37.462;2023-01-19T15:00:42;44.75;;;21.88;;
66384;SDS011;53426;55.872;37.462;2023-01-19T15:03:08;40.83;;;21.98;;
66384;SDS011;53426;55.872;37.462;2023-01-19T15:05:38;53.38;;;24.15;;
66384;SDS011;53426;55.872;37.462;2023-01-19T15:08:06;43.28;;;21.58;;
66384;SDS011;53426;55.872;37.462;2023-01-19T15:10:47;38.28;;;19.25;;
66384;SDS011;53426;55.872;37.462;2023-01-19T15:13:23;44.65;;;22.30;;
66384;SDS011;53426;55.872;37.462;2023-01-19T15:15:51;37.22;;;18.67;;
66384;SDS011;53426;55.872;37.462;2023-01-19T15:18:24;41.58;;;21.65;;
66384;SDS011;53426;55.872;37.462;2023-01-19T15:20:51;30.70;;;16.77;;
66384;SDS011;53426;55.872;37.462;2023-01-19T15:23:19;33.35;;;18.85;;
66384;SDS011;53426;55.872;37.462;2023-01-19T15:25:45;39.00;;;20.90;;
66384;SDS011;53426;55.872;37.462;2023-01-19T15:28:15;34.35;;;19.48;;
66384;SDS011;53426;55.872;37.462;2023-01-19T15:30:46;47.38;;;21.67;;
66384;SDS011;53426;55.872;37.462;2023-01-19T15:33:18;39.38;;;20.83;;
66384;SDS011;53426;55.872;37.462;2023-01-19T15:35:46;37.35;;;17.30;;
66384;SDS011;53426;55.872;37.462;2023-01-19T15:38:12;31.05;;;17.40;;
66384;SDS011;53426;55.872;37.462;2023-01-19T15:40:38;30.88;;;17.92;;
66384;SDS011;53426;55.872;37.462;2023-01-19T15:43:03;31.98;;;19.15;;
66384;SDS011;53426;55.872;37.462;2023-01-19T15:45:34;30.48;;;16.60;;
66384;SDS011;53426;55.872;37.462;2023-01-19T15:48:01;27.25;;;17.17;;
66384;SDS011;53426;55.872;37.462;2023-01-19T15:50:41;35.40;;;20.08;;
66384;SDS011;53426;55.872;37.462;2023-01-19T15:53:12;31.50;;;18.25;;
66384;SDS011;53426;55.872;37.462;2023-01-19T15:55:39;36.75;;;18.23;;
66384;SDS011;53426;55.872;37.462;2023-01-19T15:58:06;22.17;;;15.10;;
66384;SDS011;53426;55.872;37.462;2023-01-19T16:00:33;26.40;;;16.80;;
66384;SDS011;53426;55.872;37.462;2023-01-19T16:03:02;32.60;;;18.65;;
66384;SDS011;53426;55.872;37.462;2023-01-19T16:05:28;29.60;;;17.52;;
66384;SDS011;53426;55.872;37.462;2023-01-19T16:07:54;23.73;;;15.65;;
66384;SDS011;53426;55.872;37.462;2023-01-19T16:10:20;34.25;;;18.48;;
66384;SDS011;53426;55.872;37.462;2023-01-19T16:12:46;29.83;;;17.08;;
66384;SDS011;53426;55.872;37.462;2023-01-19T16:15:16;31.70;;;18.77;;
66384;SDS011;53426;55.872;37.462;2023-01-19T16:17:42;25.45;;;15.68;;
66384;SDS011;53426;55.872;37.462;2023-01-19T16:20:08;28.70;;;18.65;;